sensor_id;sensor_type;location;lat;lon;timestamp;temperature;humidity
52869;DHT22;39100;53.480;6.158;2024-02-21T00:00:43;9.00;99.90
52869;DHT22;39100;53.480;6.158;2024-02-21T00:03:09;8.80;99.90
52869;DHT22;39100;53.480;6.158;2024-02-21T00:05:34;8.90;99.90
52869;DHT22;39100;53.480;6.158;2024-02-21T00:08:00;8.90;99.90
52869;DHT22;39100;53.480;6.158;2024-02-21T00:10:26;8.70;99.90
52869;DHT22;39100;53.480;6.158;2024-02-21T00:12:52;8.70;99.90
52869;DHT22;39100;53.480;6.158;2024-02-21T00:15:17;8.70;99.90
52869;DHT22;39100;53.480;6.158;2024-02-21T00:17:44;8.70;99.90
52869;DHT22;39100;53.480;6.158;2024-02-21T00:20:10;8.70;99.90
52869;DHT22;39100;53.480;6.158;2024-02-21T00:22:35;8.70;99.90
52869;DHT22;39100;53.480;6.158;2024-02-21T00:25:01;8.70;99.90
52869;DHT22;39100;53.480;6.158;2024-02-21T00:27:27;8.70;99.90
52869;DHT22;39100;53.480;6.158;2024-02-21T00:29:53;8.80;99.90
52869;DHT22;39100;53.480;6.158;2024-02-21T00:32:18;8.60;99.90
52869;DHT22;39100;53.480;6.158;2024-02-21T00:34:44;8.60;99.90
52869;DHT22;39100;53.480;6.158;2024-02-21T00:37:09;8.70;99.90
52869;DHT22;39100;53.480;6.158;2024-02-21T00:39:35;8.70;99.90
52869;DHT22;39100;53.480;6.158;2024-02-21T00:42:01;8.80;99.90
52869;DHT22;39100;53.480;6.158;2024-02-21T00:44:26;8.80;99.90
52869;DHT22;39100;53.480;6.158;2024-02-21T00:46:52;8.80;99.90
52869;DHT22;39100;53.480;6.158;2024-02-21T00:49:18;8.80;99.90
52869;DHT22;39100;53.480;6.158;2024-02-21T00:51:43;8.70;99.90
52869;DHT22;39100;53.480;6.158;2024-02-21T00:54:09;8.80;99.90
52869;DHT22;39100;53.480;6.158;2024-02-21T00:56:34;8.80;99.90
52869;DHT22;39100;53.480;6.158;2024-02-21T00:59:00;8.80;99.90
52869;DHT22;39100;53.480;6.158;2024-02-21T01:01:26;8.70;99.90
52869;DHT22;39100;53.480;6.158;2024-02-21T01:03:51;8.80;99.90
52869;DHT22;39100;53.480;6.158;2024-02-21T01:06:20;8.80;99.90
52869;DHT22;39100;53.480;6.158;2024-02-21T01:08:49;8.80;99.90
52869;DHT22;39100;53.480;6.158;2024-02-21T01:11:15;8.80;99.90
52869;DHT22;39100;53.480;6.158;2024-02-21T01:13:41;8.80;99.90
52869;DHT22;39100;53.480;6.158;2024-02-21T01:16:07;8.80;99.90
52869;DHT22;39100;53.480;6.158;2024-02-21T01:18:33;8.70;99.90
52869;DHT22;39100;53.480;6.158;2024-02-21T01:20:59;8.80;99.90
52869;DHT22;39100;53.480;6.158;2024-02-21T01:23:25;8.90;99.90
52869;DHT22;39100;53.480;6.158;2024-02-21T01:25:51;8.70;99.90
52869;DHT22;39100;53.480;6.158;2024-02-21T01:28:16;8.80;99.90
52869;DHT22;39100;53.480;6.158;2024-02-21T01:30:42;8.80;99.90
52869;DHT22;39100;53.480;6.158;2024-02-21T01:33:07;8.70;99.90
52869;DHT22;39100;53.480;6.158;2024-02-21T01:35:34;8.70;99.90
52869;DHT22;39100;53.480;6.158;2024-02-21T01:38:00;8.80;99.90
52869;DHT22;39100;53.480;6.158;2024-02-21T01:40:25;8.80;99.90
52869;DHT22;39100;53.480;6.158;2024-02-21T01:42:55;9.00;99.90
52869;DHT22;39100;53.480;6.158;2024-02-21T01:45:21;8.80;99.90
52869;DHT22;39100;53.480;6.158;2024-02-21T01:47:48;8.80;99.90
52869;DHT22;39100;53.480;6.158;2024-02-21T01:50:14;8.80;99.90
52869;DHT22;39100;53.480;6.158;2024-02-21T01:52:41;8.70;99.90
52869;DHT22;39100;53.480;6.158;2024-02-21T01:55:07;8.70;99.90
52869;DHT22;39100;53.480;6.158;2024-02-21T01:57:35;8.80;99.90
52869;DHT22;39100;53.480;6.158;2024-02-21T02:00:01;9.30;99.90
52869;DHT22;39100;53.480;6.158;2024-02-21T02:02:27;8.80;99.90
52869;DHT22;39100;53.480;6.158;2024-02-21T02:04:52;8.70;99.90
52869;DHT22;39100;53.480;6.158;2024-02-21T02:07:18;8.70;99.90
52869;DHT22;39100;53.480;6.158;2024-02-21T02:09:44;8.70;99.90
52869;DHT22;39100;53.480;6.158;2024-02-21T02:12:09;8.70;99.90
52869;DHT22;39100;53.480;6.158;2024-02-21T02:14:35;8.60;99.90
52869;DHT22;39100;53.480;6.158;2024-02-21T02:17:00;8.60;99.90
52869;DHT22;39100;53.480;6.158;2024-02-21T02:19:26;8.70;99.90
52869;DHT22;39100;53.480;6.158;2024-02-21T02:21:59;9.00;99.90
52869;DHT22;39100;53.480;6.158;2024-02-21T02:24:25;8.70;99.90
52869;DHT22;39100;53.480;6.158;2024-02-21T02:26:53;8.70;99.90
52869;DHT22;39100;53.480;6.158;2024-02-21T02:29:19;8.70;99.90
52869;DHT22;39100;53.480;6.158;2024-02-21T02:31:44;8.60;99.90
52869;DHT22;39100;53.480;6.158;2024-02-21T02:34:10;8.60;99.90
52869;DHT22;39100;53.480;6.158;2024-02-21T02:36:36;8.60;99.90
52869;DHT22;39100;53.480;6.158;2024-02-21T02:39:01;8.60;99.90
52869;DHT22;39100;53.480;6.158;2024-02-21T02:41:27;8.60;99.90
52869;DHT22;39100;53.480;6.158;2024-02-21T02:43:53;8.50;99.90
52869;DHT22;39100;53.480;6.158;2024-02-21T02:46:18;8.60;99.90
52869;DHT22;39100;53.480;6.158;2024-02-21T02:48:44;8.40;99.90
52869;DHT22;39100;53.480;6.158;2024-02-21T02:51:10;8.50;99.90
52869;DHT22;39100;53.480;6.158;2024-02-21T02:53:36;8.50;99.90
52869;DHT22;39100;53.480;6.158;2024-02-21T02:56:01;8.50;99.90
52869;DHT22;39100;53.480;6.158;2024-02-21T02:58:28;8.50;99.90
52869;DHT22;39100;53.480;6.158;2024-02-21T03:00:54;8.50;99.90
52869;DHT22;39100;53.480;6.158;2024-02-21T03:03:19;8.60;99.90
52869;DHT22;39100;53.480;6.158;2024-02-21T03:05:45;8.50;99.90
52869;DHT22;39100;53.480;6.158;2024-02-21T03:08:11;8.50;99.90
52869;DHT22;39100;53.480;6.158;2024-02-21T03:10:36;8.50;99.90
52869;DHT22;39100;53.480;6.158;2024-02-21T03:13:02;8.40;99.90
52869;DHT22;39100;53.480;6.158;2024-02-21T03:15:29;8.40;99.90
52869;DHT22;39100;53.480;6.158;2024-02-21T03:17:54;8.50;99.90
52869;DHT22;39100;53.480;6.158;2024-02-21T03:20:20;8.40;99.90
52869;DHT22;39100;53.480;6.158;2024-02-21T03:22:45;8.40;99.90
52869;DHT22;39100;53.480;6.158;2024-02-21T03:25:11;8.40;99.90
52869;DHT22;39100;53.480;6.158;2024-02-21T03:27:38;8.40;99.90
52869;DHT22;39100;53.480;6.158;2024-02-21T03:30:04;8.50;99.90
52869;DHT22;39100;53.480;6.158;2024-02-21T03:32:29;8.50;99.90
52869;DHT22;39100;53.480;6.158;2024-02-21T03:34:55;8.60;99.90
52869;DHT22;39100;53.480;6.158;2024-02-21T03:37:21;8.40;99.90
52869;DHT22;39100;53.480;6.158;2024-02-21T03:39:46;8.50;99.90
52869;DHT22;39100;53.480;6.158;2024-02-21T03:42:12;8.50;99.90
52869;DHT22;39100;53.480;6.158;2024-02-21T03:44:38;8.50;99.90
52869;DHT22;39100;53.480;6.158;2024-02-21T03:47:04;8.40;99.90
52869;DHT22;39100;53.480;6.158;2024-02-21T03:49:29;8.60;99.90
52869;DHT22;39100;53.480;6.158;2024-02-21T03:51:55;8.40;99.90
52869;DHT22;39100;53.480;6.158;2024-02-21T03:54:20;8.50;99.90
52869;DHT22;39100;53.480;6.158;2024-02-21T03:56:46;8.60;99.90
52869;DHT22;39100;53.480;6.158;2024-02-21T03:59:13;8.50;99.90
52869;DHT22;39100;53.480;6.158;2024-02-21T04:01:39;8.60;99.90
52869;DHT22;39100;53.480;6.158;2024-02-21T04:04:04;8.50;99.90
52869;DHT22;39100;53.480;6.158;2024-02-21T04:06:30;8.50;99.90
52869;DHT22;39100;53.480;6.158;2024-02-21T04:08:56;8.60;99.90
52869;DHT22;39100;53.480;6.158;2024-02-21T04:11:22;8.50;99.90
52869;DHT22;39100;53.480;6.158;2024-02-21T04:13:47;8.50;99.90
52869;DHT22;39100;53.480;6.158;2024-02-21T04:16:15;8.50;99.90
52869;DHT22;39100;53.480;6.158;2024-02-21T04:18:41;8.50;99.90
52869;DHT22;39100;53.480;6.158;2024-02-21T04:21:08;8.60;99.90
52869;DHT22;39100;53.480;6.158;2024-02-21T04:23:33;8.50;99.90
52869;DHT22;39100;53.480;6.158;2024-02-21T04:25:59;8.60;99.90
52869;DHT22;39100;53.480;6.158;2024-02-21T04:28:24;8.50;99.90
52869;DHT22;39100;53.480;6.158;2024-02-21T04:30:50;8.60;99.90
52869;DHT22;39100;53.480;6.158;2024-02-21T04:33:16;8.50;99.90
52869;DHT22;39100;53.480;6.158;2024-02-21T04:35:41;8.60;99.90
52869;DHT22;39100;53.480;6.158;2024-02-21T04:38:07;8.50;99.90
52869;DHT22;39100;53.480;6.158;2024-02-21T04:40:32;8.60;99.90
52869;DHT22;39100;53.480;6.158;2024-02-21T04:42:58;8.70;99.90
52869;DHT22;39100;53.480;6.158;2024-02-21T04:45:24;8.70;99.90
52869;DHT22;39100;53.480;6.158;2024-02-21T04:47:49;8.50;99.90
52869;DHT22;39100;53.480;6.158;2024-02-21T04:50:15;8.60;99.90
52869;DHT22;39100;53.480;6.158;2024-02-21T04:52:41;8.60;99.90
52869;DHT22;39100;53.480;6.158;2024-02-21T04:55:07;8.60;99.90
52869;DHT22;39100;53.480;6.158;2024-02-21T04:57:33;8.60;99.90
52869;DHT22;39100;53.480;6.158;2024-02-21T04:59:59;8.50;99.90
52869;DHT22;39100;53.480;6.158;2024-02-21T05:02:24;8.60;99.90
52869;DHT22;39100;53.480;6.158;2024-02-21T05:04:52;8.60;99.90
52869;DHT22;39100;53.480;6.158;2024-02-21T05:07:17;9.10;99.90
52869;DHT22;39100;53.480;6.158;2024-02-21T05:09:45;8.40;99.90
52869;DHT22;39100;53.480;6.158;2024-02-21T05:12:10;8.60;99.90
52869;DHT22;39100;53.480;6.158;2024-02-21T05:14:36;8.50;99.90
52869;DHT22;39100;53.480;6.158;2024-02-21T05:17:03;8.40;99.90
52869;DHT22;39100;53.480;6.158;2024-02-21T05:19:28;8.60;99.90
52869;DHT22;39100;53.480;6.158;2024-02-21T05:21:54;8.40;99.90
52869;DHT22;39100;53.480;6.158;2024-02-21T05:24:19;8.50;99.90
52869;DHT22;39100;53.480;6.158;2024-02-21T05:26:45;8.50;99.90
52869;DHT22;39100;53.480;6.158;2024-02-21T05:29:11;8.50;99.90
52869;DHT22;39100;53.480;6.158;2024-02-21T05:34:18;8.50;99.90
52869;DHT22;39100;53.480;6.158;2024-02-21T05:36:44;8.40;99.90
52869;DHT22;39100;53.480;6.158;2024-02-21T05:39:10;8.50;99.90
52869;DHT22;39100;53.480;6.158;2024-02-21T05:41:36;8.50;99.90
52869;DHT22;39100;53.480;6.158;2024-02-21T05:44:01;8.40;99.90
52869;DHT22;39100;53.480;6.158;2024-02-21T05:46:27;8.50;99.90
52869;DHT22;39100;53.480;6.158;2024-02-21T05:48:53;8.40;99.90
52869;DHT22;39100;53.480;6.158;2024-02-21T05:51:18;8.90;99.90
52869;DHT22;39100;53.480;6.158;2024-02-21T05:53:44;8.30;99.90
52869;DHT22;39100;53.480;6.158;2024-02-21T05:56:10;8.20;99.90
52869;DHT22;39100;53.480;6.158;2024-02-21T05:58:37;8.30;99.90
52869;DHT22;39100;53.480;6.158;2024-02-21T06:01:02;8.20;99.90
52869;DHT22;39100;53.480;6.158;2024-02-21T06:03:29;8.20;99.90
52869;DHT22;39100;53.480;6.158;2024-02-21T06:05:55;8.40;99.90
52869;DHT22;39100;53.480;6.158;2024-02-21T06:08:20;8.20;99.90
52869;DHT22;39100;53.480;6.158;2024-02-21T06:10:46;8.40;99.90
52869;DHT22;39100;53.480;6.158;2024-02-21T06:13:11;8.40;99.90
52869;DHT22;39100;53.480;6.158;2024-02-21T06:15:37;8.50;99.90
52869;DHT22;39100;53.480;6.158;2024-02-21T06:18:03;8.50;99.90
52869;DHT22;39100;53.480;6.158;2024-02-21T06:20:28;8.50;99.90
52869;DHT22;39100;53.480;6.158;2024-02-21T06:22:54;8.40;99.90
52869;DHT22;39100;53.480;6.158;2024-02-21T06:25:19;8.40;99.90
52869;DHT22;39100;53.480;6.158;2024-02-21T06:27:45;8.40;99.90
52869;DHT22;39100;53.480;6.158;2024-02-21T06:30:11;8.50;99.90
52869;DHT22;39100;53.480;6.158;2024-02-21T06:32:37;8.40;99.90
52869;DHT22;39100;53.480;6.158;2024-02-21T06:35:04;8.50;99.90
52869;DHT22;39100;53.480;6.158;2024-02-21T06:37:29;8.50;99.90
52869;DHT22;39100;53.480;6.158;2024-02-21T06:39:55;8.40;99.90
52869;DHT22;39100;53.480;6.158;2024-02-21T06:42:21;8.50;99.90
52869;DHT22;39100;53.480;6.158;2024-02-21T06:44:47;8.40;99.90
52869;DHT22;39100;53.480;6.158;2024-02-21T06:47:12;8.50;99.90
52869;DHT22;39100;53.480;6.158;2024-02-21T06:49:38;8.50;99.90
52869;DHT22;39100;53.480;6.158;2024-02-21T06:52:07;8.60;99.90
52869;DHT22;39100;53.480;6.158;2024-02-21T06:54:32;8.60;99.90
52869;DHT22;39100;53.480;6.158;2024-02-21T06:56:58;8.50;99.90
52869;DHT22;39100;53.480;6.158;2024-02-21T06:59:23;8.80;99.90
52869;DHT22;39100;53.480;6.158;2024-02-21T07:01:53;8.60;99.90
52869;DHT22;39100;53.480;6.158;2024-02-21T07:04:20;8.50;99.90
52869;DHT22;39100;53.480;6.158;2024-02-21T07:06:45;8.70;99.90
52869;DHT22;39100;53.480;6.158;2024-02-21T07:09:11;8.60;99.90
52869;DHT22;39100;53.480;6.158;2024-02-21T07:11:36;8.60;99.90
52869;DHT22;39100;53.480;6.158;2024-02-21T07:14:02;8.60;99.90
52869;DHT22;39100;53.480;6.158;2024-02-21T07:16:27;8.80;99.90
52869;DHT22;39100;53.480;6.158;2024-02-21T07:18:54;8.60;99.90
52869;DHT22;39100;53.480;6.158;2024-02-21T07:21:20;8.60;99.90
52869;DHT22;39100;53.480;6.158;2024-02-21T07:23:46;8.60;99.90
52869;DHT22;39100;53.480;6.158;2024-02-21T07:26:11;8.60;99.90
52869;DHT22;39100;53.480;6.158;2024-02-21T07:28:37;8.70;99.90
52869;DHT22;39100;53.480;6.158;2024-02-21T07:31:03;8.60;99.90
52869;DHT22;39100;53.480;6.158;2024-02-21T07:33:28;8.70;99.90
52869;DHT22;39100;53.480;6.158;2024-02-21T07:35:56;8.60;99.90
52869;DHT22;39100;53.480;6.158;2024-02-21T07:38:21;8.80;99.90
52869;DHT22;39100;53.480;6.158;2024-02-21T07:40:47;8.80;99.90
52869;DHT22;39100;53.480;6.158;2024-02-21T07:43:13;8.80;99.90
52869;DHT22;39100;53.480;6.158;2024-02-21T07:45:39;8.70;99.90
52869;DHT22;39100;53.480;6.158;2024-02-21T07:48:05;9.10;99.90
52869;DHT22;39100;53.480;6.158;2024-02-21T07:50:31;8.70;99.90
52869;DHT22;39100;53.480;6.158;2024-02-21T07:52:57;8.90;99.90
52869;DHT22;39100;53.480;6.158;2024-02-21T07:55:23;8.90;99.90
52869;DHT22;39100;53.480;6.158;2024-02-21T07:57:48;8.90;99.90
52869;DHT22;39100;53.480;6.158;2024-02-21T08:00:15;8.90;99.90
52869;DHT22;39100;53.480;6.158;2024-02-21T08:02:46;9.00;99.90
52869;DHT22;39100;53.480;6.158;2024-02-21T08:05:12;8.90;99.90
52869;DHT22;39100;53.480;6.158;2024-02-21T08:07:40;9.00;99.90
52869;DHT22;39100;53.480;6.158;2024-02-21T08:10:06;9.00;99.90
52869;DHT22;39100;53.480;6.158;2024-02-21T08:12:33;9.00;99.90
52869;DHT22;39100;53.480;6.158;2024-02-21T08:14:59;9.00;99.90
52869;DHT22;39100;53.480;6.158;2024-02-21T08:17:25;9.70;99.90
52869;DHT22;39100;53.480;6.158;2024-02-21T08:19:50;9.00;99.90
52869;DHT22;39100;53.480;6.158;2024-02-21T08:22:16;8.90;99.90
52869;DHT22;39100;53.480;6.158;2024-02-21T08:24:42;9.00;99.90
52869;DHT22;39100;53.480;6.158;2024-02-21T08:27:07;8.90;99.90
52869;DHT22;39100;53.480;6.158;2024-02-21T08:29:33;9.00;99.90
52869;DHT22;39100;53.480;6.158;2024-02-21T08:31:58;9.00;99.90
52869;DHT22;39100;53.480;6.158;2024-02-21T08:34:24;8.90;99.90
52869;DHT22;39100;53.480;6.158;2024-02-21T08:36:50;9.00;99.90
52869;DHT22;39100;53.480;6.158;2024-02-21T08:39:16;8.90;99.90
52869;DHT22;39100;53.480;6.158;2024-02-21T08:41:42;8.90;99.90
52869;DHT22;39100;53.480;6.158;2024-02-21T08:44:08;8.90;99.90
52869;DHT22;39100;53.480;6.158;2024-02-21T08:46:33;8.90;99.90
52869;DHT22;39100;53.480;6.158;2024-02-21T08:48:59;9.00;99.90
52869;DHT22;39100;53.480;6.158;2024-02-21T08:51:25;9.00;99.90
52869;DHT22;39100;53.480;6.158;2024-02-21T08:53:50;9.10;99.90
52869;DHT22;39100;53.480;6.158;2024-02-21T08:56:17;9.10;99.90
52869;DHT22;39100;53.480;6.158;2024-02-21T08:58:43;8.90;99.90
52869;DHT22;39100;53.480;6.158;2024-02-21T09:01:09;9.10;99.90
52869;DHT22;39100;53.480;6.158;2024-02-21T09:03:38;8.90;99.90
52869;DHT22;39100;53.480;6.158;2024-02-21T09:06:07;9.10;99.90
52869;DHT22;39100;53.480;6.158;2024-02-21T09:08:33;9.00;99.90
52869;DHT22;39100;53.480;6.158;2024-02-21T09:11:02;9.00;99.90
52869;DHT22;39100;53.480;6.158;2024-02-21T09:13:28;9.10;99.90
52869;DHT22;39100;53.480;6.158;2024-02-21T09:15:55;9.00;99.90
52869;DHT22;39100;53.480;6.158;2024-02-21T09:18:21;9.10;99.90
52869;DHT22;39100;53.480;6.158;2024-02-21T09:20:46;9.50;99.90
52869;DHT22;39100;53.480;6.158;2024-02-21T09:23:13;9.10;99.90
52869;DHT22;39100;53.480;6.158;2024-02-21T09:25:38;9.00;99.90
52869;DHT22;39100;53.480;6.158;2024-02-21T09:28:05;9.00;99.90
52869;DHT22;39100;53.480;6.158;2024-02-21T09:30:31;9.10;99.90
52869;DHT22;39100;53.480;6.158;2024-02-21T09:32:57;9.10;99.90
52869;DHT22;39100;53.480;6.158;2024-02-21T09:35:25;9.20;99.90
52869;DHT22;39100;53.480;6.158;2024-02-21T09:37:52;9.10;99.90
52869;DHT22;39100;53.480;6.158;2024-02-21T09:40:18;9.10;99.90
52869;DHT22;39100;53.480;6.158;2024-02-21T09:42:44;9.10;99.90
52869;DHT22;39100;53.480;6.158;2024-02-21T09:45:21;9.20;99.90
52869;DHT22;39100;53.480;6.158;2024-02-21T09:50:39;9.30;99.90
52869;DHT22;39100;53.480;6.158;2024-02-21T09:53:06;9.20;99.90
52869;DHT22;39100;53.480;6.158;2024-02-21T09:55:33;9.30;99.90
52869;DHT22;39100;53.480;6.158;2024-02-21T09:58:01;9.40;99.90
52869;DHT22;39100;53.480;6.158;2024-02-21T10:00:27;9.30;99.90
52869;DHT22;39100;53.480;6.158;2024-02-21T10:02:53;9.40;99.90
52869;DHT22;39100;53.480;6.158;2024-02-21T10:05:19;9.30;99.90
52869;DHT22;39100;53.480;6.158;2024-02-21T10:07:45;9.40;99.90
52869;DHT22;39100;53.480;6.158;2024-02-21T10:10:11;9.30;99.90
52869;DHT22;39100;53.480;6.158;2024-02-21T10:12:36;9.40;99.90
52869;DHT22;39100;53.480;6.158;2024-02-21T10:15:12;9.30;99.90
52869;DHT22;39100;53.480;6.158;2024-02-21T10:17:38;9.40;99.90
52869;DHT22;39100;53.480;6.158;2024-02-21T10:20:10;9.40;99.90
52869;DHT22;39100;53.480;6.158;2024-02-21T10:22:38;9.50;99.90
52869;DHT22;39100;53.480;6.158;2024-02-21T10:25:11;9.50;99.90
52869;DHT22;39100;53.480;6.158;2024-02-21T10:27:40;9.50;99.90
52869;DHT22;39100;53.480;6.158;2024-02-21T10:30:07;9.50;99.90
52869;DHT22;39100;53.480;6.158;2024-02-21T10:32:33;9.60;99.90
52869;DHT22;39100;53.480;6.158;2024-02-21T10:35:03;9.60;99.90
52869;DHT22;39100;53.480;6.158;2024-02-21T10:37:33;9.70;99.90
52869;DHT22;39100;53.480;6.158;2024-02-21T10:39:58;9.70;99.90
52869;DHT22;39100;53.480;6.158;2024-02-21T10:42:28;9.70;99.90
52869;DHT22;39100;53.480;6.158;2024-02-21T10:45:00;9.80;99.90
52869;DHT22;39100;53.480;6.158;2024-02-21T10:47:32;9.80;99.90
52869;DHT22;39100;53.480;6.158;2024-02-21T10:50:02;9.80;99.90
52869;DHT22;39100;53.480;6.158;2024-02-21T10:53:00;9.80;99.90
52869;DHT22;39100;53.480;6.158;2024-02-21T10:55:37;9.90;99.90
52869;DHT22;39100;53.480;6.158;2024-02-21T10:58:04;10.00;99.90
52869;DHT22;39100;53.480;6.158;2024-02-21T11:00:30;10.00;99.90
52869;DHT22;39100;53.480;6.158;2024-02-21T11:02:58;10.00;99.90
52869;DHT22;39100;53.480;6.158;2024-02-21T11:05:25;10.00;99.90
52869;DHT22;39100;53.480;6.158;2024-02-21T11:07:51;10.00;99.90
52869;DHT22;39100;53.480;6.158;2024-02-21T11:10:27;10.00;99.90
52869;DHT22;39100;53.480;6.158;2024-02-21T11:13:08;10.00;99.90
52869;DHT22;39100;53.480;6.158;2024-02-21T11:15:34;10.10;99.90
52869;DHT22;39100;53.480;6.158;2024-02-21T11:18:00;10.00;99.90
52869;DHT22;39100;53.480;6.158;2024-02-21T11:20:32;10.00;99.90
52869;DHT22;39100;53.480;6.158;2024-02-21T11:22:59;10.00;99.90
52869;DHT22;39100;53.480;6.158;2024-02-21T11:25:26;10.10;99.90
52869;DHT22;39100;53.480;6.158;2024-02-21T11:28:02;10.10;99.90
52869;DHT22;39100;53.480;6.158;2024-02-21T11:30:32;10.00;99.90
52869;DHT22;39100;53.480;6.158;2024-02-21T11:33:01;10.00;99.90
52869;DHT22;39100;53.480;6.158;2024-02-21T11:35:31;10.00;99.90
52869;DHT22;39100;53.480;6.158;2024-02-21T11:38:10;9.90;99.90
52869;DHT22;39100;53.480;6.158;2024-02-21T11:40:39;9.90;99.90
52869;DHT22;39100;53.480;6.158;2024-02-21T11:43:05;9.90;99.90
52869;DHT22;39100;53.480;6.158;2024-02-21T11:45:31;9.90;99.90
52869;DHT22;39100;53.480;6.158;2024-02-21T11:47:58;9.90;99.90
52869;DHT22;39100;53.480;6.158;2024-02-21T11:50:26;9.90;99.90
52869;DHT22;39100;53.480;6.158;2024-02-21T11:52:54;9.90;99.90
52869;DHT22;39100;53.480;6.158;2024-02-21T11:55:21;9.90;99.90
52869;DHT22;39100;53.480;6.158;2024-02-21T11:57:48;10.00;99.90
52869;DHT22;39100;53.480;6.158;2024-02-21T12:00:15;10.00;99.90
52869;DHT22;39100;53.480;6.158;2024-02-21T12:02:42;10.00;99.90
52869;DHT22;39100;53.480;6.158;2024-02-21T12:05:08;10.00;99.90
52869;DHT22;39100;53.480;6.158;2024-02-21T12:07:35;10.00;99.90
52869;DHT22;39100;53.480;6.158;2024-02-21T12:10:01;10.00;99.90
52869;DHT22;39100;53.480;6.158;2024-02-21T12:12:28;10.00;99.90
52869;DHT22;39100;53.480;6.158;2024-02-21T12:14:56;10.00;99.90
52869;DHT22;39100;53.480;6.158;2024-02-21T12:17:23;10.00;99.90
52869;DHT22;39100;53.480;6.158;2024-02-21T12:19:50;10.00;99.90
52869;DHT22;39100;53.480;6.158;2024-02-21T12:22:18;10.00;99.90
52869;DHT22;39100;53.480;6.158;2024-02-21T12:24:44;10.00;99.90
52869;DHT22;39100;53.480;6.158;2024-02-21T12:27:13;9.90;99.90
52869;DHT22;39100;53.480;6.158;2024-02-21T12:29:39;9.90;99.90
52869;DHT22;39100;53.480;6.158;2024-02-21T12:32:05;9.90;99.90
52869;DHT22;39100;53.480;6.158;2024-02-21T12:34:30;10.00;99.90
52869;DHT22;39100;53.480;6.158;2024-02-21T12:36:58;9.90;99.90
52869;DHT22;39100;53.480;6.158;2024-02-21T12:39:24;10.00;99.90
52869;DHT22;39100;53.480;6.158;2024-02-21T12:41:53;10.00;99.90
52869;DHT22;39100;53.480;6.158;2024-02-21T12:44:19;10.00;99.90
52869;DHT22;39100;53.480;6.158;2024-02-21T12:46:45;11.40;99.90
52869;DHT22;39100;53.480;6.158;2024-02-21T12:49:10;10.00;99.90
52869;DHT22;39100;53.480;6.158;2024-02-21T12:51:36;10.00;99.90
52869;DHT22;39100;53.480;6.158;2024-02-21T12:54:03;10.00;99.90
52869;DHT22;39100;53.480;6.158;2024-02-21T12:56:28;10.00;99.90
52869;DHT22;39100;53.480;6.158;2024-02-21T12:58:56;10.10;99.90
52869;DHT22;39100;53.480;6.158;2024-02-21T13:01:22;10.10;99.90
52869;DHT22;39100;53.480;6.158;2024-02-21T13:03:47;10.10;99.90
52869;DHT22;39100;53.480;6.158;2024-02-21T13:06:13;10.00;99.90
52869;DHT22;39100;53.480;6.158;2024-02-21T13:08:39;10.10;99.90
52869;DHT22;39100;53.480;6.158;2024-02-21T13:11:05;10.10;99.90
52869;DHT22;39100;53.480;6.158;2024-02-21T13:13:31;10.10;99.90
52869;DHT22;39100;53.480;6.158;2024-02-21T13:16:00;10.10;99.90
52869;DHT22;39100;53.480;6.158;2024-02-21T13:18:25;10.10;99.90
52869;DHT22;39100;53.480;6.158;2024-02-21T13:20:51;10.00;99.90
52869;DHT22;39100;53.480;6.158;2024-02-21T13:23:17;10.10;99.90
52869;DHT22;39100;53.480;6.158;2024-02-21T13:25:42;10.00;99.90
52869;DHT22;39100;53.480;6.158;2024-02-21T13:28:09;10.30;99.90
52869;DHT22;39100;53.480;6.158;2024-02-21T13:30:35;10.00;99.90
52869;DHT22;39100;53.480;6.158;2024-02-21T13:33:01;10.10;99.90
52869;DHT22;39100;53.480;6.158;2024-02-21T13:35:28;10.00;99.90
52869;DHT22;39100;53.480;6.158;2024-02-21T13:37:54;10.00;99.90
52869;DHT22;39100;53.480;6.158;2024-02-21T13:40:19;10.00;99.90
52869;DHT22;39100;53.480;6.158;2024-02-21T13:42:45;10.00;99.90
52869;DHT22;39100;53.480;6.158;2024-02-21T13:45:10;10.10;99.90
52869;DHT22;39100;53.480;6.158;2024-02-21T13:47:36;9.90;99.90
52869;DHT22;39100;53.480;6.158;2024-02-21T13:50:02;9.90;99.90
52869;DHT22;39100;53.480;6.158;2024-02-21T13:52:30;9.90;99.90
52869;DHT22;39100;53.480;6.158;2024-02-21T13:54:56;9.80;99.90
52869;DHT22;39100;53.480;6.158;2024-02-21T13:57:22;9.80;99.90
52869;DHT22;39100;53.480;6.158;2024-02-21T13:59:48;9.80;99.90
52869;DHT22;39100;53.480;6.158;2024-02-21T14:02:13;9.80;99.90
52869;DHT22;39100;53.480;6.158;2024-02-21T14:04:39;9.70;99.90
52869;DHT22;39100;53.480;6.158;2024-02-21T14:07:05;9.70;99.90
52869;DHT22;39100;53.480;6.158;2024-02-21T14:09:30;9.70;99.90
52869;DHT22;39100;53.480;6.158;2024-02-21T14:11:56;9.80;99.90
52869;DHT22;39100;53.480;6.158;2024-02-21T14:14:21;9.70;99.90
52869;DHT22;39100;53.480;6.158;2024-02-21T14:16:47;9.70;99.90
52869;DHT22;39100;53.480;6.158;2024-02-21T14:19:15;9.70;99.90
52869;DHT22;39100;53.480;6.158;2024-02-21T14:21:41;9.70;99.90
52869;DHT22;39100;53.480;6.158;2024-02-21T14:24:07;9.70;99.90
52869;DHT22;39100;53.480;6.158;2024-02-21T14:26:33;9.70;99.90
52869;DHT22;39100;53.480;6.158;2024-02-21T14:28:59;9.60;99.90
52869;DHT22;39100;53.480;6.158;2024-02-21T14:31:24;9.60;99.90
52869;DHT22;39100;53.480;6.158;2024-02-21T14:33:50;10.60;99.90
52869;DHT22;39100;53.480;6.158;2024-02-21T14:36:16;9.60;99.90
52869;DHT22;39100;53.480;6.158;2024-02-21T14:38:42;9.60;99.90
52869;DHT22;39100;53.480;6.158;2024-02-21T14:41:09;9.60;99.90
52869;DHT22;39100;53.480;6.158;2024-02-21T14:43:34;9.50;99.90
52869;DHT22;39100;53.480;6.158;2024-02-21T14:46:01;9.50;99.90
52869;DHT22;39100;53.480;6.158;2024-02-21T14:48:30;9.50;99.90
52869;DHT22;39100;53.480;6.158;2024-02-21T14:51:00;9.50;99.90
52869;DHT22;39100;53.480;6.158;2024-02-21T14:53:25;9.50;99.90
52869;DHT22;39100;53.480;6.158;2024-02-21T14:55:51;9.40;99.90
52869;DHT22;39100;53.480;6.158;2024-02-21T14:58:17;10.90;99.90
52869;DHT22;39100;53.480;6.158;2024-02-21T15:00:46;9.50;99.90
52869;DHT22;39100;53.480;6.158;2024-02-21T15:03:12;9.50;99.90
52869;DHT22;39100;53.480;6.158;2024-02-21T15:05:41;9.40;99.90
52869;DHT22;39100;53.480;6.158;2024-02-21T15:08:07;9.40;99.90
52869;DHT22;39100;53.480;6.158;2024-02-21T15:10:36;9.40;99.90
52869;DHT22;39100;53.480;6.158;2024-02-21T15:13:02;9.40;99.90
52869;DHT22;39100;53.480;6.158;2024-02-21T15:15:28;9.40;99.90
52869;DHT22;39100;53.480;6.158;2024-02-21T15:17:54;9.40;99.90
52869;DHT22;39100;53.480;6.158;2024-02-21T15:20:19;9.40;99.90
52869;DHT22;39100;53.480;6.158;2024-02-21T15:22:45;9.30;99.90
52869;DHT22;39100;53.480;6.158;2024-02-21T15:25:11;9.30;99.90
52869;DHT22;39100;53.480;6.158;2024-02-21T15:27:41;9.40;99.90
52869;DHT22;39100;53.480;6.158;2024-02-21T15:30:09;9.30;99.90
52869;DHT22;39100;53.480;6.158;2024-02-21T15:32:34;9.30;99.90
52869;DHT22;39100;53.480;6.158;2024-02-21T15:35:03;9.20;99.90
52869;DHT22;39100;53.480;6.158;2024-02-21T15:37:29;9.20;99.90
52869;DHT22;39100;53.480;6.158;2024-02-21T15:39:54;9.20;99.90
52869;DHT22;39100;53.480;6.158;2024-02-21T15:42:20;9.20;99.90
52869;DHT22;39100;53.480;6.158;2024-02-21T15:44:46;9.20;99.90